createdAt,value
2019-01-15T00:00:28.759Z,99.90
2019-01-15T00:02:57.328Z,99.90
2019-01-15T00:05:26.149Z,99.90
2019-01-15T00:07:54.584Z,99.90
2019-01-15T00:10:24.489Z,99.90
2019-01-15T00:12:53.332Z,99.90
2019-01-15T00:15:22.003Z,99.90
2019-01-15T00:17:50.647Z,99.90
2019-01-15T00:20:19.278Z,99.90
2019-01-15T00:22:47.915Z,99.90
2019-01-15T00:25:16.685Z,99.90
2019-01-15T00:27:45.131Z,99.90
2019-01-15T00:30:15.233Z,99.90
2019-01-15T00:32:43.781Z,99.90
2019-01-15T00:35:12.514Z,99.90
2019-01-15T00:37:41.356Z,99.90
2019-01-15T00:40:12.528Z,99.90
2019-01-15T00:42:40.835Z,99.90
2019-01-15T00:45:09.942Z,99.90
2019-01-15T00:47:38.311Z,99.90
2019-01-15T00:50:08.997Z,99.90
2019-01-15T00:52:37.747Z,99.90
2019-01-15T00:55:08.193Z,99.90
2019-01-15T00:57:37.011Z,99.90
2019-01-15T01:00:12.131Z,99.90
2019-01-15T01:02:40.543Z,99.90
2019-01-15T01:05:09.168Z,99.90
2019-01-15T01:07:37.763Z,99.90
2019-01-15T01:10:07.380Z,99.90
2019-01-15T01:12:36.092Z,99.90
2019-01-15T01:15:05.867Z,99.90
2019-01-15T01:17:34.206Z,99.90
2019-01-15T01:20:02.746Z,99.90
2019-01-15T01:22:31.588Z,99.90
2019-01-15T01:25:00.173Z,99.90
2019-01-15T01:27:28.494Z,99.90
2019-01-15T01:29:57.217Z,99.90
2019-01-15T01:32:25.876Z,99.90
2019-01-15T01:34:54.331Z,99.90
2019-01-15T01:37:22.907Z,99.90
2019-01-15T01:39:51.655Z,99.90
2019-01-15T01:42:20.452Z,99.90
2019-01-15T01:44:50.452Z,99.90
2019-01-15T01:47:18.945Z,99.90
2019-01-15T01:49:47.561Z,99.90
2019-01-15T01:52:15.834Z,99.90
2019-01-15T01:54:44.506Z,99.90
2019-01-15T01:57:13.106Z,99.90
2019-01-15T01:59:41.802Z,99.90
2019-01-15T02:02:10.578Z,99.90
2019-01-15T02:04:39.236Z,99.90
2019-01-15T02:07:07.845Z,99.90
2019-01-15T02:09:36.430Z,99.90
2019-01-15T02:12:05.126Z,99.90
2019-01-15T02:14:33.607Z,99.90
2019-01-15T02:17:02.073Z,99.90
2019-01-15T02:19:30.606Z,99.90
2019-01-15T02:21:59.182Z,99.90
2019-01-15T02:24:28.094Z,99.90
2019-01-15T02:26:56.849Z,99.90
2019-01-15T02:29:25.395Z,99.90
2019-01-15T02:31:54.196Z,99.90
2019-01-15T02:34:22.805Z,99.90
2019-01-15T02:36:51.389Z,99.90
2019-01-15T02:39:20.033Z,99.90
2019-01-15T02:41:48.887Z,99.90
2019-01-15T02:44:17.405Z,99.90
2019-01-15T02:46:53.627Z,99.90
2019-01-15T02:49:22.236Z,99.90
2019-01-15T02:51:50.731Z,99.90
2019-01-15T02:54:19.518Z,99.90
2019-01-15T02:56:48.359Z,99.90
2019-01-15T02:59:16.764Z,99.90
2019-01-15T03:01:45.038Z,99.90
2019-01-15T03:04:13.541Z,99.90
2019-01-15T03:06:41.957Z,99.90
2019-01-15T03:09:10.228Z,99.90
2019-01-15T03:11:38.987Z,99.90
2019-01-15T03:14:07.502Z,99.90
2019-01-15T03:16:35.877Z,99.90
2019-01-15T03:19:04.424Z,99.90
2019-01-15T03:21:33.006Z,99.90
2019-01-15T03:24:01.321Z,99.90
2019-01-15T03:26:29.710Z,99.90
2019-01-15T03:28:58.483Z,99.90
2019-01-15T03:31:26.852Z,99.90
2019-01-15T03:33:55.515Z,99.90
2019-01-15T03:36:23.991Z,99.90
2019-01-15T03:38:52.520Z,99.90
2019-01-15T03:41:21.055Z,99.90
2019-01-15T03:43:49.469Z,99.90
2019-01-15T03:46:17.839Z,99.90
2019-01-15T03:48:46.327Z,99.90
2019-01-15T03:51:14.690Z,99.90
2019-01-15T03:53:42.927Z,99.90
2019-01-15T03:56:11.322Z,99.90
2019-01-15T03:58:39.828Z,99.90
2019-01-15T04:01:08.272Z,99.90
2019-01-15T04:03:36.693Z,99.90
2019-01-15T04:06:05.088Z,99.90
2019-01-15T04:08:33.440Z,99.90
2019-01-15T04:11:01.998Z,99.90
2019-01-15T04:13:30.323Z,99.90
2019-01-15T04:15:58.959Z,99.90
2019-01-15T04:18:27.527Z,99.90
2019-01-15T04:20:55.955Z,99.90
2019-01-15T04:23:24.433Z,99.90
2019-01-15T04:25:53.037Z,99.90
2019-01-15T04:28:21.284Z,99.90
2019-01-15T04:30:49.573Z,99.90
2019-01-15T04:33:18.118Z,99.90
2019-01-15T04:35:46.543Z,99.90
2019-01-15T04:38:14.896Z,99.90
2019-01-15T04:40:43.370Z,99.90
2019-01-15T04:43:19.428Z,99.90
2019-01-15T04:45:42.260Z,99.90
2019-01-15T04:48:10.779Z,99.90
2019-01-15T04:50:39.148Z,99.90
2019-01-15T04:53:07.431Z,99.90
2019-01-15T04:55:35.795Z,99.90
2019-01-15T04:58:04.253Z,99.90
2019-01-15T05:00:32.562Z,99.90
2019-01-15T05:03:11.452Z,99.90
2019-01-15T05:05:39.959Z,99.90
2019-01-15T05:08:08.515Z,99.90
2019-01-15T05:10:37.035Z,99.90
2019-01-15T05:13:05.401Z,99.90
2019-01-15T05:15:33.842Z,99.90
2019-01-15T05:18:21.265Z,99.90
2019-01-15T05:20:50.152Z,99.90
2019-01-15T05:23:18.647Z,99.90
2019-01-15T05:25:47.130Z,99.90
2019-01-15T05:28:15.652Z,99.90
2019-01-15T05:30:44.088Z,99.90
2019-01-15T05:33:12.621Z,99.90
2019-01-15T05:35:40.987Z,99.90
2019-01-15T05:38:09.429Z,99.90
2019-01-15T05:40:37.910Z,99.90
2019-01-15T05:43:06.276Z,99.90
2019-01-15T05:45:36.968Z,99.90
2019-01-15T05:48:15.638Z,99.90
2019-01-15T05:51:03.302Z,99.90
2019-01-15T05:53:31.850Z,99.90
2019-01-15T05:56:00.249Z,99.90
2019-01-15T05:58:28.628Z,99.90
2019-01-15T06:00:57.186Z,99.90
2019-01-15T06:03:25.498Z,99.90
2019-01-15T06:05:53.873Z,99.90
2019-01-15T06:08:22.320Z,99.90
2019-01-15T06:10:50.739Z,99.90
2019-01-15T06:13:19.282Z,99.90
2019-01-15T06:15:47.665Z,99.90
2019-01-15T06:18:16.140Z,99.90
2019-01-15T06:20:44.724Z,99.90
2019-01-15T06:23:13.235Z,99.90
2019-01-15T06:25:41.519Z,99.90
2019-01-15T06:28:10.005Z,99.90
2019-01-15T06:30:38.347Z,99.90
2019-01-15T06:33:06.858Z,99.90
2019-01-15T06:35:35.401Z,99.90
2019-01-15T06:38:05.434Z,99.90
2019-01-15T06:40:34.020Z,99.90
2019-01-15T06:43:03.826Z,99.90
2019-01-15T06:45:33.211Z,99.90
2019-01-15T06:48:01.631Z,99.90
2019-01-15T06:50:30.104Z,99.90
2019-01-15T06:52:58.550Z,99.10
2019-01-15T06:55:27.074Z,97.40
2019-01-15T06:57:55.612Z,96.30
2019-01-15T07:00:25.735Z,95.70
2019-01-15T07:02:54.337Z,94.40
2019-01-15T07:05:22.628Z,94.70
2019-01-15T07:07:51.173Z,93.60
2019-01-15T07:10:26.762Z,94.00
2019-01-15T07:12:55.096Z,93.20
2019-01-15T07:15:23.686Z,93.90
2019-01-15T07:17:52.158Z,92.10
2019-01-15T07:20:20.644Z,91.70
2019-01-15T07:22:48.939Z,92.30
2019-01-15T07:25:17.542Z,90.80
2019-01-15T07:27:46.081Z,90.30
2019-01-15T07:30:17.276Z,87.40
2019-01-15T07:32:45.644Z,90.40
2019-01-15T07:35:34.986Z,86.10
2019-01-15T07:38:03.443Z,88.40
2019-01-15T07:40:31.831Z,87.00
2019-01-15T07:43:00.450Z,86.10
2019-01-15T07:45:28.915Z,87.90
2019-01-15T07:47:57.229Z,88.30
2019-01-15T07:50:25.750Z,86.50
2019-01-15T07:52:54.332Z,84.50
2019-01-15T07:55:22.852Z,83.40
2019-01-15T07:57:51.284Z,83.20
2019-01-15T08:00:20.419Z,83.10
2019-01-15T08:02:49.776Z,80.30
2019-01-15T08:05:19.202Z,79.20
2019-01-15T08:07:47.561Z,78.10
2019-01-15T08:10:17.101Z,77.90
2019-01-15T08:12:45.601Z,79.60
2019-01-15T08:15:16.733Z,78.70
2019-01-15T08:17:45.213Z,77.60
2019-01-15T08:20:13.936Z,77.20
2019-01-15T08:22:42.651Z,76.10
2019-01-15T08:25:11.921Z,75.00
2019-01-15T08:27:40.328Z,76.20
2019-01-15T08:30:15.193Z,74.10
2019-01-15T08:32:43.639Z,73.70
2019-01-15T08:35:12.977Z,78.80
2019-01-15T08:37:41.460Z,79.70
2019-01-15T08:40:11.887Z,79.00
2019-01-15T08:42:40.324Z,76.40
2019-01-15T08:45:09.761Z,78.40
2019-01-15T08:47:44.538Z,77.00
2019-01-15T08:50:14.008Z,79.50
2019-01-15T08:52:42.378Z,79.70
2019-01-15T08:55:10.833Z,80.40
2019-01-15T08:57:39.399Z,83.00
2019-01-15T09:00:09.048Z,83.30
2019-01-15T09:02:37.592Z,83.50
2019-01-15T09:05:06.008Z,84.90
2019-01-15T09:07:34.376Z,84.50
2019-01-15T09:10:03.377Z,85.30
2019-01-15T09:12:31.696Z,83.30
2019-01-15T09:15:00.361Z,81.80
2019-01-15T09:17:28.839Z,82.00
2019-01-15T09:19:57.301Z,82.40
2019-01-15T09:22:25.665Z,80.80
2019-01-15T09:24:54.320Z,78.80
2019-01-15T09:27:22.980Z,76.00
2019-01-15T09:29:51.304Z,74.50
2019-01-15T09:32:19.864Z,71.30
2019-01-15T09:34:48.278Z,70.70
2019-01-15T09:37:16.950Z,70.10
2019-01-15T09:39:45.715Z,69.60
2019-01-15T09:42:14.210Z,69.50
2019-01-15T09:44:42.601Z,70.30
2019-01-15T09:47:11.024Z,67.60
2019-01-15T09:49:39.531Z,69.30
2019-01-15T09:52:13.163Z,67.30
2019-01-15T09:54:38.440Z,67.10
2019-01-15T09:57:07.006Z,65.00
2019-01-15T09:59:35.331Z,64.80
2019-01-15T10:02:03.900Z,65.50
2019-01-15T10:04:32.462Z,65.30
2019-01-15T10:07:00.878Z,64.90
2019-01-15T10:09:29.423Z,64.10
2019-01-15T10:11:57.825Z,66.40
2019-01-15T10:14:26.383Z,63.30
2019-01-15T10:16:54.966Z,64.30
2019-01-15T10:19:23.382Z,65.80
2019-01-15T10:21:51.964Z,64.50
2019-01-15T10:24:20.612Z,64.40
2019-01-15T10:26:49.015Z,65.00
2019-01-15T10:29:17.983Z,64.30
2019-01-15T10:32:12.370Z,65.10
2019-01-15T10:34:42.626Z,66.70
2019-01-15T10:37:11.173Z,65.80
2019-01-15T10:39:39.553Z,64.80
2019-01-15T10:42:08.134Z,63.30
2019-01-15T10:44:36.657Z,66.10
2019-01-15T10:47:05.200Z,65.80
2019-01-15T10:49:33.515Z,65.60
2019-01-15T10:52:01.992Z,64.40
2019-01-15T10:54:30.638Z,63.50
2019-01-15T10:56:59.207Z,63.10
2019-01-15T10:59:27.624Z,62.50
2019-01-15T11:01:56.088Z,59.10
2019-01-15T11:04:24.388Z,57.60
2019-01-15T11:06:52.655Z,58.20
2019-01-15T11:09:21.216Z,59.50
2019-01-15T11:11:49.796Z,62.20
2019-01-15T11:14:18.635Z,59.40
2019-01-15T11:16:47.166Z,59.20
2019-01-15T11:19:15.646Z,54.40
2019-01-15T11:21:44.159Z,54.40
2019-01-15T11:24:12.631Z,54.80
2019-01-15T11:26:40.920Z,55.10
2019-01-15T11:29:09.180Z,56.10
2019-01-15T11:31:38.665Z,55.70
2019-01-15T11:34:07.354Z,54.70
2019-01-15T11:36:35.774Z,54.90
2019-01-15T11:39:08.032Z,55.00
2019-01-15T11:41:36.623Z,54.70
2019-01-15T11:44:04.887Z,56.20
2019-01-15T11:46:33.334Z,54.80
2019-01-15T11:49:01.917Z,54.60
2019-01-15T11:51:30.432Z,55.60
2019-01-15T11:53:58.777Z,55.60
2019-01-15T11:56:27.204Z,57.20
2019-01-15T11:58:55.984Z,58.90
2019-01-15T12:01:43.774Z,58.80
2019-01-15T12:04:30.482Z,60.30
2019-01-15T12:07:27.228Z,60.00
2019-01-15T12:10:30.111Z,59.50
2019-01-15T12:13:23.576Z,59.30
2019-01-15T12:16:09.978Z,59.40
2019-01-15T12:18:56.582Z,59.90
2019-01-15T12:21:35.711Z,60.40
2019-01-15T12:24:27.539Z,62.80
2019-01-15T12:27:18.138Z,60.80
2019-01-15T12:30:03.516Z,62.70
2019-01-15T12:32:49.815Z,61.80
2019-01-15T12:35:47.480Z,63.70
2019-01-15T12:38:35.417Z,64.20
2019-01-15T12:41:30.624Z,64.50
2019-01-15T12:44:16.851Z,65.00
2019-01-15T12:47:07.109Z,62.70
2019-01-15T12:49:53.643Z,63.70
2019-01-15T12:52:41.548Z,63.10
2019-01-15T12:55:41.567Z,65.00
2019-01-15T12:58:27.966Z,65.60
2019-01-15T13:01:14.164Z,66.10
2019-01-15T13:03:57.902Z,65.80
2019-01-15T13:06:44.406Z,69.20
2019-01-15T13:09:38.075Z,70.30
2019-01-15T13:12:44.034Z,71.00
2019-01-15T13:15:47.128Z,70.40
2019-01-15T13:18:33.524Z,73.10
2019-01-15T13:21:24.333Z,71.40
2019-01-15T13:24:14.927Z,71.20
2019-01-15T13:27:01.224Z,68.40
2019-01-15T13:29:48.956Z,70.60
2019-01-15T13:32:36.789Z,69.10
2019-01-15T13:35:25.344Z,69.00
2019-01-15T13:38:19.013Z,70.20
2019-01-15T13:41:22.104Z,70.80
2019-01-15T13:44:14.648Z,70.20
2019-01-15T13:46:58.695Z,68.70
2019-01-15T13:49:44.888Z,66.00
2019-01-15T13:52:32.723Z,66.70
2019-01-15T13:55:29.292Z,67.20
2019-01-15T13:58:15.662Z,68.80
2019-01-15T14:00:58.988Z,70.00
2019-01-15T14:03:46.626Z,69.90
2019-01-15T14:06:40.494Z,67.20
2019-01-15T14:09:27.714Z,67.60
2019-01-15T14:12:24.456Z,69.40
2019-01-15T14:15:11.163Z,69.50
2019-01-15T14:17:58.894Z,68.70
2019-01-15T14:20:46.732Z,67.30
2019-01-15T14:23:34.563Z,68.30
2019-01-15T14:26:31.616Z,67.20
2019-01-15T14:29:19.447Z,65.60
2019-01-15T14:32:07.178Z,66.60
2019-01-15T14:35:17.029Z,67.50
2019-01-15T14:38:04.863Z,69.80
2019-01-15T14:40:51.371Z,71.00
2019-01-15T14:43:42.476Z,70.80
2019-01-15T14:46:36.148Z,71.60
2019-01-15T14:49:21.626Z,71.30
2019-01-15T14:52:14.887Z,70.90
2019-01-15T14:55:11.527Z,72.80
2019-01-15T14:57:57.763Z,72.30
2019-01-15T15:00:44.025Z,70.80
2019-01-15T15:03:38.511Z,69.60
2019-01-15T15:06:19.382Z,70.80
2019-01-15T15:09:19.298Z,72.90
2019-01-15T15:12:09.897Z,73.40
2019-01-15T15:14:58.859Z,74.70
2019-01-15T15:17:53.247Z,72.80
2019-01-15T15:20:51.077Z,73.70
2019-01-15T15:23:48.268Z,75.50
2019-01-15T15:26:30.674Z,76.70
2019-01-15T15:29:11.852Z,77.00
2019-01-15T15:31:59.787Z,75.30
2019-01-15T15:34:41.990Z,76.30
2019-01-15T15:37:39.040Z,74.10
2019-01-15T15:40:35.784Z,73.70
2019-01-15T15:43:23.718Z,74.20
2019-01-15T15:46:11.367Z,75.70
2019-01-15T15:48:57.236Z,74.10
2019-01-15T15:51:53.671Z,75.70
2019-01-15T15:54:35.156Z,75.30
2019-01-15T15:57:26.065Z,77.80
2019-01-15T16:00:13.282Z,78.60
2019-01-15T16:03:01.013Z,78.60
2019-01-15T16:06:07.281Z,79.70
2019-01-15T16:08:52.149Z,79.60
2019-01-15T16:11:58.526Z,80.00
2019-01-15T16:14:45.015Z,78.30
2019-01-15T16:17:41.861Z,79.80
2019-01-15T16:20:28.568Z,78.30
2019-01-15T16:23:15.177Z,77.00
2019-01-15T16:26:11.816Z,77.50
2019-01-15T16:28:58.214Z,80.80
2019-01-15T16:31:45.643Z,81.50
2019-01-15T16:34:45.968Z,80.20
2019-01-15T16:37:48.954Z,81.90
2019-01-15T16:40:36.412Z,82.40
2019-01-15T16:43:33.432Z,79.60
2019-01-15T16:46:33.247Z,84.10
2019-01-15T16:49:32.968Z,81.80
2019-01-15T16:52:55.708Z,79.70
2019-01-15T16:55:42.107Z,80.80
2019-01-15T16:58:33.426Z,81.50
2019-01-15T17:01:36.006Z,84.20
2019-01-15T17:04:38.792Z,82.00
2019-01-15T17:07:36.658Z,85.50
2019-01-15T17:10:31.557Z,86.80
2019-01-15T17:13:18.265Z,81.30
2019-01-15T17:16:21.256Z,84.00
2019-01-15T17:19:06.119Z,84.10
2019-01-15T17:22:13.908Z,83.10
2019-01-15T17:25:09.129Z,82.00
2019-01-15T17:28:14.779Z,80.90
2019-01-15T17:30:57.903Z,81.00
2019-01-15T17:33:44.302Z,82.00
2019-01-15T17:36:37.883Z,84.50
2019-01-15T17:39:26.730Z,81.20
2019-01-15T17:42:17.226Z,80.20
2019-01-15T17:45:15.301Z,81.40
2019-01-15T17:48:05.901Z,80.10
2019-01-15T17:50:55.924Z,83.50
2019-01-15T17:53:42.082Z,82.20
2019-01-15T17:56:25.715Z,82.70
2019-01-15T17:59:27.167Z,82.50
2019-01-15T18:02:16.129Z,85.30
2019-01-15T18:05:02.658Z,84.00
2019-01-15T18:07:46.472Z,86.90
2019-01-15T18:10:40.040Z,87.70
2019-01-15T18:13:37.090Z,86.40
2019-01-15T18:16:20.521Z,84.70
2019-01-15T18:19:00.369Z,85.00
2019-01-15T18:21:52.673Z,85.30
2019-01-15T18:24:51.498Z,85.00
2019-01-15T18:27:39.234Z,85.70
2019-01-15T18:30:35.210Z,87.00
2019-01-15T18:33:23.575Z,87.00
2019-01-15T18:36:10.311Z,85.10
2019-01-15T18:39:13.196Z,87.50
2019-01-15T18:42:03.898Z,84.60
2019-01-15T18:44:50.312Z,83.70
2019-01-15T18:47:37.215Z,82.00
2019-01-15T18:50:24.436Z,83.90
2019-01-15T18:53:13.391Z,84.40
2019-01-15T18:56:04.197Z,82.70
2019-01-15T18:58:50.546Z,83.30
2019-01-15T19:01:38.225Z,82.80
2019-01-15T19:04:31.792Z,84.00
2019-01-15T19:07:19.626Z,83.30
2019-01-15T19:10:06.130Z,85.20
2019-01-15T19:12:59.902Z,84.90
2019-01-15T19:15:59.716Z,85.10
2019-01-15T19:18:50.316Z,86.60
2019-01-15T19:21:51.017Z,85.80
2019-01-15T19:24:46.362Z,86.60
2019-01-15T19:27:46.073Z,86.90
2019-01-15T19:30:32.475Z,84.00
2019-01-15T19:33:31.208Z,82.40
2019-01-15T19:36:14.592Z,88.10
2019-01-15T19:39:07.855Z,84.60
2019-01-15T19:42:07.409Z,82.60
2019-01-15T19:45:04.209Z,80.70
2019-01-15T19:47:50.533Z,85.40
2019-01-15T19:50:37.014Z,85.20
2019-01-15T19:53:27.402Z,84.80
2019-01-15T19:56:08.892Z,85.20
2019-01-15T19:59:08.603Z,82.80
2019-01-15T20:01:55.248Z,83.00
2019-01-15T20:04:41.504Z,85.00
2019-01-15T20:07:38.451Z,84.00
2019-01-15T20:10:20.759Z,83.60
2019-01-15T20:13:14.324Z,82.50
2019-01-15T20:16:04.719Z,83.90
2019-01-15T20:18:52.347Z,84.10
2019-01-15T20:21:42.742Z,82.30
2019-01-15T20:24:33.443Z,83.50
2019-01-15T20:27:21.584Z,82.10
2019-01-15T20:30:08.092Z,82.20
2019-01-15T20:32:55.205Z,84.50
2019-01-15T20:35:52.049Z,85.30
2019-01-15T20:38:39.592Z,84.10
2019-01-15T20:41:26.181Z,85.10
2019-01-15T20:44:10.503Z,85.70
2019-01-15T20:46:58.270Z,84.30
2019-01-15T20:49:39.443Z,85.50
2019-01-15T20:52:36.496Z,87.20
2019-01-15T20:55:24.328Z,85.80
2019-01-15T20:58:27.214Z,87.30
2019-01-15T21:01:23.752Z,87.00
2019-01-15T21:04:11.589Z,87.50
2019-01-15T21:06:58.092Z,86.50
2019-01-15T21:09:48.691Z,86.40
2019-01-15T21:12:45.431Z,87.70
2019-01-15T21:15:36.337Z,86.30
2019-01-15T21:18:33.931Z,86.20
2019-01-15T21:21:22.247Z,87.10
2019-01-15T21:24:05.779Z,86.20
2019-01-15T21:27:08.976Z,86.60
2019-01-15T21:29:46.976Z,86.70
2019-01-15T21:32:33.786Z,87.80
2019-01-15T21:35:24.487Z,88.60
2019-01-15T21:38:22.050Z,87.60
2019-01-15T21:41:18.793Z,87.00
2019-01-15T21:44:05.344Z,86.80
2019-01-15T21:47:11.155Z,88.40
2019-01-15T21:49:54.505Z,87.00
2019-01-15T21:52:55.627Z,88.40
2019-01-15T21:55:32.708Z,87.20
2019-01-15T21:58:24.746Z,86.30
2019-01-15T22:01:15.750Z,85.60
2019-01-15T22:04:10.047Z,85.90
2019-01-15T22:07:13.234Z,88.10
2019-01-15T22:10:01.063Z,86.90
2019-01-15T22:12:53.197Z,90.10
2019-01-15T22:15:37.077Z,89.70
2019-01-15T22:18:24.567Z,90.10
2019-01-15T22:21:08.712Z,90.40
2019-01-15T22:23:56.711Z,90.30
2019-01-15T22:26:44.483Z,90.60
2019-01-15T22:29:37.744Z,91.50
2019-01-15T22:32:37.764Z,91.60
2019-01-15T22:35:20.789Z,91.90
2019-01-15T22:38:07.187Z,92.60
2019-01-15T22:40:55.331Z,93.00
2019-01-15T22:43:43.162Z,93.70
2019-01-15T22:46:29.664Z,93.90
2019-01-15T22:49:17.499Z,94.10
2019-01-15T22:52:03.902Z,93.70
2019-01-15T22:54:48.257Z,93.70
2019-01-15T22:57:39.369Z,93.70
2019-01-15T23:00:36.415Z,93.40
2019-01-15T23:03:33.158Z,93.80
2019-01-15T23:06:21.401Z,93.50
2019-01-15T23:09:09.337Z,93.30
2019-01-15T23:12:00.146Z,94.70
2019-01-15T23:14:48.175Z,93.80
2019-01-15T23:17:39.091Z,93.90
2019-01-15T23:20:34.193Z,95.10
2019-01-15T23:23:26.130Z,95.30
2019-01-15T23:26:12.934Z,95.30
2019-01-15T23:29:11.011Z,94.70
2019-01-15T23:32:01.301Z,94.50
2019-01-15T23:34:40.740Z,94.20
2019-01-15T23:37:34.820Z,94.30
2019-01-15T23:40:22.636Z,95.70
2019-01-15T23:43:00.762Z,95.00
2019-01-15T23:45:42.655Z,95.80
2019-01-15T23:48:29.669Z,95.40
2019-01-15T23:51:26.515Z,96.70
2019-01-15T23:54:22.442Z,96.90
2019-01-15T23:57:10.272Z,97.90
